Time;durP1;ratioP1;P1;durP2;ratioP2;P2;SDS_P1;SDS_P2;PMS_P1;PMS_P2;Temp;Humidity;BMP_temperature;BMP_pressure;BME280_temperature;BME280_humidity;BME280_pressure;Samples;Min_cycle;Max_cycle;Signal;HPM_P1;HPM_P2
2024/01/10 00:01:05;;;;;;;42.20;17.02;;;;;;;;;;10286983;28;20479;-62
2024/01/10 00:06:04;;;;;;;26.20;12.98;;;;;;;;;;10286893;28;20040;-63
2024/01/10 00:11:03;;;;;;;20.65;11.02;;;;;;;;;;10290499;28;20072;-62
2024/01/10 00:16:01;;;;;;;29.05;15.55;;;;;;;;;;10288885;28;20068;-62
2024/01/10 00:21:01;;;;;;;32.17;17.02;;;;;;;;;;10283072;28;20135;-62
2024/01/10 00:25:59;;;;;;;65.70;29.80;;;;;;;;;;10282728;28;20076;-62
2024/01/10 00:30:57;;;;;;;21.63;12.55;;;;;;;;;;10279965;28;20503;-62
2024/01/10 00:35:55;;;;;;;25.00;15.63;;;;;;;;;;10285168;28;20088;-62
2024/01/10 00:40:56;;;;;;;14.23;10.45;;;;;;;;;;10286795;28;20075;-62
2024/01/10 00:45:54;;;;;;;18.42;12.35;;;;;;;;;;10287712;28;20474;-62
2024/01/10 00:50:52;;;;;;;50.30;30.65;;;;;;;;;;10283824;28;20072;-62
2024/01/10 00:55:51;;;;;;;18.45;12.73;;;;;;;;;;10287914;28;20522;-62
2024/01/10 01:00:50;;;;;;;35.22;19.38;;;;;;;;;;10287531;28;20091;-62
2024/01/10 01:05:49;;;;;;;63.42;36.63;;;;;;;;;;10288473;28;20073;-62
2024/01/10 01:10:47;;;;;;;21.60;14.52;;;;;;;;;;10284470;28;20479;-62
2024/01/10 01:15:45;;;;;;;18.23;12.90;;;;;;;;;;10287523;28;20072;-61
2024/01/10 01:20:45;;;;;;;32.22;18.42;;;;;;;;;;10286586;28;20079;-63
2024/01/10 01:25:43;;;;;;;20.33;13.85;;;;;;;;;;10286005;28;20076;-63
2024/01/10 01:30:41;;;;;;;18.70;12.52;;;;;;;;;;10286322;28;20072;-62
2024/01/10 01:35:40;;;;;;;23.05;12.93;;;;;;;;;;10285489;28;20091;-62
2024/01/10 01:40:39;;;;;;;14.13;10.95;;;;;;;;;;10287876;28;20087;-62
2024/01/10 01:45:37;;;;;;;17.23;11.25;;;;;;;;;;10285571;28;20079;-62
2024/01/10 01:50:36;;;;;;;16.70;11.40;;;;;;;;;;10285404;28;20076;-62
2024/01/10 01:55:34;;;;;;;20.17;13.55;;;;;;;;;;10281065;28;20646;-62
2024/01/10 02:00:34;;;;;;;18.38;14.57;;;;;;;;;;10282823;28;20083;-62
2024/01/10 02:05:33;;;;;;;16.02;11.43;;;;;;;;;;10285850;28;20064;-61
2024/01/10 02:10:31;;;;;;;19.48;12.32;;;;;;;;;;10284316;28;20098;-61
2024/01/10 02:15:30;;;;;;;22.83;17.80;;;;;;;;;;10291452;28;20080;-62
2024/01/10 02:20:29;;;;;;;29.45;19.83;;;;;;;;;;10294212;28;20471;-62
2024/01/10 02:25:29;;;;;;;18.48;13.65;;;;;;;;;;10291301;28;20072;-62
2024/01/10 02:30:27;;;;;;;22.00;15.82;;;;;;;;;;10291434;28;20074;-62
2024/01/10 02:35:26;;;;;;;22.55;14.88;;;;;;;;;;10292116;28;20086;-63
2024/01/10 02:40:24;;;;;;;22.83;15.13;;;;;;;;;;10292575;28;20052;-61
2024/01/10 02:45:24;;;;;;;47.47;26.25;;;;;;;;;;10293307;28;20072;-62
2024/01/10 02:50:22;;;;;;;27.33;16.20;;;;;;;;;;10292619;28;20073;-62
2024/01/10 02:55:20;;;;;;;27.50;19.10;;;;;;;;;;10292222;28;20079;-63
2024/01/10 03:00:19;;;;;;;25.50;18.05;;;;;;;;;;10290797;28;20082;-63
2024/01/10 03:05:18;;;;;;;35.83;23.83;;;;;;;;;;10290706;28;20072;-63
2024/01/10 03:10:16;;;;;;;23.35;16.55;;;;;;;;;;10291105;28;20055;-62
2024/01/10 03:15:15;;;;;;;69.75;35.70;;;;;;;;;;10290848;28;20469;-61
2024/01/10 03:20:13;;;;;;;24.05;17.38;;;;;;;;;;10290616;28;20472;-62
2024/01/10 03:25:13;;;;;;;24.52;15.68;;;;;;;;;;10288330;28;20081;-62
2024/01/10 03:30:11;;;;;;;21.05;13.82;;;;;;;;;;10286624;28;20084;-62
2024/01/10 03:35:10;;;;;;;20.80;14.32;;;;;;;;;;10289151;28;20110;-62
2024/01/10 03:40:09;;;;;;;18.88;15.45;;;;;;;;;;10289714;28;20075;-61
2024/01/10 03:45:08;;;;;;;31.55;21.65;;;;;;;;;;10289642;28;20076;-62
2024/01/10 03:50:08;;;;;;;29.35;20.20;;;;;;;;;;10289566;28;20510;-62
2024/01/10 03:55:06;;;;;;;26.90;19.42;;;;;;;;;;10289168;28;20102;-62
2024/01/10 04:00:06;;;;;;;22.38;15.68;;;;;;;;;;10288161;28;20072;-62
2024/01/10 04:05:09;;;;;;;27.35;16.55;;;;;;;;;;10284886;28;20103;-62
2024/01/10 04:10:10;;;;;;;61.35;27.80;;;;;;;;;;10288910;28;20088;-63
2024/01/10 04:15:08;;;;;;;16.75;12.98;;;;;;;;;;10287544;28;20080;-62
2024/01/10 04:20:09;;;;;;;15.70;12.85;;;;;;;;;;10287120;28;20514;-62
2024/01/10 04:25:08;;;;;;;25.73;17.50;;;;;;;;;;10285972;28;20499;-62
2024/01/10 04:30:06;;;;;;;29.02;18.92;;;;;;;;;;10288744;28;20091;-62
2024/01/10 04:35:05;;;;;;;21.35;14.45;;;;;;;;;;10283345;28;20155;-63
2024/01/10 04:40:05;;;;;;;21.17;13.98;;;;;;;;;;10287530;28;20083;-62
2024/01/10 04:45:07;;;;;;;24.88;17.30;;;;;;;;;;10286270;28;20076;-62
2024/01/10 04:50:05;;;;;;;20.27;15.35;;;;;;;;;;10283075;28;20069;-61
2024/01/10 04:55:10;;;;;;;16.20;13.93;;;;;;;;;;10285492;28;20072;-62
2024/01/10 05:00:10;;;;;;;22.63;14.27;;;;;;;;;;10287577;28;20462;-62
2024/01/10 05:05:08;;;;;;;23.27;14.75;;;;;;;;;;10286348;28;20079;-62
2024/01/10 05:10:07;;;;;;;22.73;13.85;;;;;;;;;;10284243;28;20083;-61
2024/01/10 05:15:08;;;;;;;28.23;15.98;;;;;;;;;;10284255;28;20111;-61
2024/01/10 05:20:07;;;;;;;20.98;15.23;;;;;;;;;;10285715;28;20072;-61
2024/01/10 05:25:05;;;;;;;32.22;20.52;;;;;;;;;;10285512;28;20080;-61
2024/01/10 05:30:04;;;;;;;18.98;12.95;;;;;;;;;;10280332;28;20068;-61
2024/01/10 05:35:04;;;;;;;23.25;17.98;;;;;;;;;;10280297;28;20096;-63
2024/01/10 05:40:03;;;;;;;23.30;15.70;;;;;;;;;;10284986;28;20087;-63
2024/01/10 05:45:02;;;;;;;21.13;14.35;;;;;;;;;;10284587;28;20080;-63
2024/01/10 05:50:00;;;;;;;17.33;13.55;;;;;;;;;;10286206;28;20087;-62
2024/01/10 05:55:01;;;;;;;17.75;13.98;;;;;;;;;;10284460;28;20060;-63
2024/01/10 05:59:59;;;;;;;17.60;11.32;;;;;;;;;;10292435;28;20079;-62
2024/01/10 06:04:57;;;;;;;13.80;10.25;;;;;;;;;;10290049;28;20503;-62
2024/01/10 06:09:56;;;;;;;30.90;16.65;;;;;;;;;;10290421;28;20516;-62
2024/01/10 06:14:55;;;;;;;21.40;15.27;;;;;;;;;;10284568;28;20076;-63
2024/01/10 06:19:53;;;;;;;29.40;17.42;;;;;;;;;;10291140;28;20076;-63
2024/01/10 06:24:52;;;;;;;23.83;17.08;;;;;;;;;;10288796;28;20072;-62
2024/01/10 06:29:50;;;;;;;18.42;13.82;;;;;;;;;;10288730;28;20068;-62
2024/01/10 06:34:50;;;;;;;31.17;20.30;;;;;;;;;;10288424;28;20084;-63
2024/01/10 06:39:48;;;;;;;20.92;14.75;;;;;;;;;;10282394;28;20072;-62
2024/01/10 06:44:46;;;;;;;34.72;19.63;;;;;;;;;;10286191;28;20081;-62
2024/01/10 06:49:45;;;;;;;28.10;16.48;;;;;;;;;;10277830;28;20584;-63
2024/01/10 06:54:44;;;;;;;29.65;15.55;;;;;;;;;;10284965;28;20072;-63
2024/01/10 06:59:43;;;;;;;25.42;15.00;;;;;;;;;;10283810;28;20072;-62
2024/01/10 07:04:41;;;;;;;21.58;15.07;;;;;;;;;;10285553;28;20079;-62
2024/01/10 07:09:40;;;;;;;23.02;12.90;;;;;;;;;;10287889;28;20775;-61
2024/01/10 07:14:40;;;;;;;27.02;18.65;;;;;;;;;;10286160;28;20087;-61
2024/01/10 07:19:38;;;;;;;25.30;16.52;;;;;;;;;;10284245;28;20525;-61
2024/01/10 07:24:36;;;;;;;23.13;15.00;;;;;;;;;;10288436;28;20072;-61
2024/01/10 07:29:35;;;;;;;19.42;15.15;;;;;;;;;;10289522;28;20463;-61
2024/01/10 07:34:34;;;;;;;31.67;21.35;;;;;;;;;;10289512;28;20080;-62
2024/01/10 07:39:33;;;;;;;26.88;17.00;;;;;;;;;;10288945;28;20068;-62
2024/01/10 07:44:31;;;;;;;24.80;17.50;;;;;;;;;;10288492;28;20466;-62
2024/01/10 07:49:29;;;;;;;25.85;17.85;;;;;;;;;;10290355;28;20491;-61
2024/01/10 07:54:31;;;;;;;31.63;18.08;;;;;;;;;;10288704;28;20084;-62
2024/01/10 07:59:30;;;;;;;24.77;19.50;;;;;;;;;;10288750;28;20065;-61
2024/01/10 08:04:28;;;;;;;26.95;20.48;;;;;;;;;;10287572;28;20076;-62
2024/01/10 08:09:28;;;;;;;22.42;16.65;;;;;;;;;;10289342;28;20072;-62
2024/01/10 08:14:27;;;;;;;28.50;19.83;;;;;;;;;;10288523;28;20072;-62
2024/01/10 08:19:26;;;;;;;27.60;21.08;;;;;;;;;;10288663;28;20080;-62
2024/01/10 08:24:24;;;;;;;32.05;19.90;;;;;;;;;;10284163;28;20087;-62
2024/01/10 08:29:30;;;;;;;36.20;21.42;;;;;;;;;;10286746;28;20065;-62
2024/01/10 08:34:28;;;;;;;25.20;18.42;;;;;;;;;;10287220;28;20087;-62
2024/01/10 08:39:28;;;;;;;21.35;15.52;;;;;;;;;;10286823;28;20464;-62
2024/01/10 08:44:28;;;;;;;38.10;20.40;;;;;;;;;;10283063;28;20084;-63
2024/01/10 08:49:27;;;;;;;31.25;19.38;;;;;;;;;;10283481;28;20083;-61
2024/01/10 08:54:26;;;;;;;18.25;12.80;;;;;;;;;;10283867;28;20064;-61
2024/01/10 08:59:25;;;;;;;19.20;12.57;;;;;;;;;;10284114;28;20061;-61
2024/01/10 09:04:25;;;;;;;25.10;13.82;;;;;;;;;;10286415;28;20072;-62
2024/01/10 09:09:24;;;;;;;17.80;14.70;;;;;;;;;;10282437;28;20072;-61
2024/01/10 09:14:22;;;;;;;20.02;14.10;;;;;;;;;;10285620;28;20064;-61
2024/01/10 09:19:20;;;;;;;16.30;12.23;;;;;;;;;;10286571;28;20080;-62
2024/01/10 09:24:21;;;;;;;18.92;11.10;;;;;;;;;;10289434;28;20077;-60
2024/01/10 09:29:27;;;;;;;30.67;18.92;;;;;;;;;;10294144;28;20068;-62
2024/01/10 09:34:25;;;;;;;28.35;15.45;;;;;;;;;;10291066;28;20102;-62
2024/01/10 09:39:25;;;;;;;15.48;10.77;;;;;;;;;;10289584;28;20147;-62
2024/01/10 09:44:23;;;;;;;35.42;20.40;;;;;;;;;;10288970;28;20076;-63
2024/01/10 09:49:22;;;;;;;13.95;11.20;;;;;;;;;;10290071;28;20068;-63
2024/01/10 09:54:22;;;;;;;19.23;12.25;;;;;;;;;;10289095;28;20486;-62
2024/01/10 09:59:21;;;;;;;10.57;7.85;;;;;;;;;;10291894;28;20954;-63
2024/01/10 10:04:21;;;;;;;15.90;10.98;;;;;;;;;;10292221;28;20088;-62
2024/01/10 10:09:19;;;;;;;16.05;10.90;;;;;;;;;;10293018;28;20083;-63
2024/01/10 10:14:19;;;;;;;9.10;7.32;;;;;;;;;;10292631;28;20068;-64
2024/01/10 10:19:24;;;;;;;9.23;7.97;;;;;;;;;;10292480;28;20475;-61
2024/01/10 10:24:37;;;;;;;11.95;7.28;;;;;;;;;;10291517;28;20076;-62
2024/01/10 10:29:36;;;;;;;12.70;7.15;;;;;;;;;;10293570;28;20080;-63
2024/01/10 10:34:36;;;;;;;15.82;10.43;;;;;;;;;;10288995;28;20076;-61
2024/01/10 10:39:34;;;;;;;18.80;12.07;;;;;;;;;;10292812;28;20079;-62
2024/01/10 10:44:35;;;;;;;15.23;9.50;;;;;;;;;;10291758;28;20069;-62
2024/01/10 10:49:34;;;;;;;16.05;11.40;;;;;;;;;;10293089;28;20533;-62
2024/01/10 10:54:34;;;;;;;9.07;8.00;;;;;;;;;;10289847;28;20607;-62
2024/01/10 10:59:34;;;;;;;9.02;7.15;;;;;;;;;;10289463;28;20071;-62
2024/01/10 11:04:33;;;;;;;11.98;9.50;;;;;;;;;;10290764;28;20076;-62
2024/01/10 11:09:31;;;;;;;15.27;9.75;;;;;;;;;;10290186;28;20069;-62
2024/01/10 11:14:37;;;;;;;14.07;9.35;;;;;;;;;;10291762;28;20072;-62
2024/01/10 11:19:53;;;;;;;30.00;11.15;;;;;;;;;;10290167;28;20064;-62
2024/01/10 11:24:52;;;;;;;35.50;11.68;;;;;;;;;;10286522;28;20083;-62
2024/01/10 11:29:52;;;;;;;38.63;11.75;;;;;;;;;;10291703;28;20076;-63
2024/01/10 11:34:58;;;;;;;51.92;17.83;;;;;;;;;;10289079;28;20092;-62
2024/01/10 11:39:57;;;;;;;35.60;13.43;;;;;;;;;;10287324;28;20079;-62
2024/01/10 11:44:56;;;;;;;17.90;8.52;;;;;;;;;;10291365;28;20064;-62
2024/01/10 11:49:55;;;;;;;19.63;11.35;;;;;;;;;;10285387;28;20068;-61
2024/01/10 11:54:53;;;;;;;10.38;7.85;;;;;;;;;;10290225;28;20079;-62
2024/01/10 11:59:52;;;;;;;18.50;11.85;;;;;;;;;;10291134;28;20198;-62
2024/01/10 12:04:51;;;;;;;11.88;8.50;;;;;;;;;;10287846;28;20088;-62
2024/01/10 12:09:50;;;;;;;11.55;7.30;;;;;;;;;;10281301;28;20072;-63
2024/01/10 12:14:49;;;;;;;12.30;9.00;;;;;;;;;;10282624;28;20513;-62
2024/01/10 12:19:47;;;;;;;22.75;12.68;;;;;;;;;;10284207;28;20064;-62
2024/01/10 12:24:50;;;;;;;9.43;7.72;;;;;;;;;;10286572;28;20065;-63
2024/01/10 12:29:50;;;;;;;10.05;7.30;;;;;;;;;;10285957;28;20080;-63
2024/01/10 12:34:48;;;;;;;13.90;9.05;;;;;;;;;;10288239;28;20083;-62
2024/01/10 12:39:47;;;;;;;9.73;7.40;;;;;;;;;;10280662;28;20123;-62
2024/01/10 12:44:46;;;;;;;14.35;11.30;;;;;;;;;;10288613;28;20061;-61
2024/01/10 12:49:45;;;;;;;16.08;11.27;;;;;;;;;;10286254;28;20068;-61
2024/01/10 12:54:43;;;;;;;22.02;14.07;;;;;;;;;;10286479;28;20061;-62
2024/01/10 12:59:41;;;;;;;29.42;16.65;;;;;;;;;;10284592;28;20069;-61
2024/01/10 13:04:41;;;;;;;27.98;14.60;;;;;;;;;;10286383;28;20486;-60
2024/01/10 13:09:40;;;;;;;13.95;8.93;;;;;;;;;;10283703;28;20518;-62
2024/01/10 13:14:38;;;;;;;14.00;9.00;;;;;;;;;;10286994;28;20068;-62
2024/01/10 13:19:37;;;;;;;12.00;8.38;;;;;;;;;;10287907;28;20069;-62
2024/01/10 13:24:36;;;;;;;12.93;9.32;;;;;;;;;;10286208;28;20068;-62
2024/01/10 13:29:36;;;;;;;39.95;24.00;;;;;;;;;;10286796;28;20076;-61
2024/01/10 13:34:35;;;;;;;31.83;17.88;;;;;;;;;;10283071;28;20515;-61
2024/01/10 13:39:33;;;;;;;10.90;8.25;;;;;;;;;;10286170;28;20072;-62
2024/01/10 13:44:34;;;;;;;18.60;12.18;;;;;;;;;;10285582;28;20077;-61
2024/01/10 13:49:32;;;;;;;15.50;10.52;;;;;;;;;;10286237;28;20096;-61
2024/01/10 13:54:30;;;;;;;24.98;13.50;;;;;;;;;;10285964;28;20080;-61
2024/01/10 13:59:28;;;;;;;21.95;13.27;;;;;;;;;;10283934;28;20072;-63
2024/01/10 14:04:28;;;;;;;31.67;19.42;;;;;;;;;;10286570;28;20065;-61
2024/01/10 14:09:27;;;;;;;18.27;13.75;;;;;;;;;;10283550;28;20499;-62
2024/01/10 14:14:25;;;;;;;19.95;12.68;;;;;;;;;;10293690;28;20080;-62
2024/01/10 14:19:23;;;;;;;16.83;10.55;;;;;;;;;;10290457;28;20064;-63
2024/01/10 14:24:24;;;;;;;10.68;8.63;;;;;;;;;;10292320;28;20509;-61
2024/01/10 14:29:23;;;;;;;14.18;11.13;;;;;;;;;;10293517;28;20095;-62
2024/01/10 14:34:21;;;;;;;28.70;15.15;;;;;;;;;;10290368;28;20111;-62
2024/01/10 14:39:20;;;;;;;17.13;11.80;;;;;;;;;;10292905;28;20096;-62
2024/01/10 14:44:20;;;;;;;25.77;19.58;;;;;;;;;;10292246;28;20139;-61
2024/01/10 14:49:18;;;;;;;33.25;25.25;;;;;;;;;;10291264;28;20065;-62
2024/01/10 14:54:17;;;;;;;71.15;48.03;;;;;;;;;;10290891;28;20079;-62
2024/01/10 14:59:16;;;;;;;23.10;18.10;;;;;;;;;;10292268;28;20072;-62
2024/01/10 15:04:20;;;;;;;28.38;20.15;;;;;;;;;;10291328;28;20052;-61
2024/01/10 15:09:19;;;;;;;26.60;18.77;;;;;;;;;;10290135;28;20072;-61
2024/01/10 15:14:17;;;;;;;25.70;18.20;;;;;;;;;;10287284;28;20064;-63
2024/01/10 15:19:16;;;;;;;35.53;25.75;;;;;;;;;;10290805;28;20068;-61
2024/01/10 15:24:15;;;;;;;63.22;35.70;;;;;;;;;;10289154;28;20069;-62
2024/01/10 15:29:17;;;;;;;74.20;41.35;;;;;;;;;;10290032;28;20087;-62
2024/01/10 15:34:16;;;;;;;57.72;35.42;;;;;;;;;;10288474;28;20084;-63
2024/01/10 15:39:15;;;;;;;44.83;28.17;;;;;;;;;;10286463;28;20083;-62
2024/01/10 15:44:13;;;;;;;30.02;22.38;;;;;;;;;;10286482;28;20111;-62
2024/01/10 15:49:12;;;;;;;40.03;25.77;;;;;;;;;;10284173;28;20080;-62
2024/01/10 15:54:10;;;;;;;27.80;17.70;;;;;;;;;;10288041;28;20061;-63
2024/01/10 15:59:10;;;;;;;26.60;16.92;;;;;;;;;;10287843;28;20061;-62
2024/01/10 16:04:09;;;;;;;57.05;33.08;;;;;;;;;;10290507;28;20080;-62
2024/01/10 16:09:09;;;;;;;45.40;27.75;;;;;;;;;;10287883;28;20110;-61
2024/01/10 16:14:07;;;;;;;76.03;42.15;;;;;;;;;;10288614;28;20076;-62
2024/01/10 16:19:08;;;;;;;47.92;32.03;;;;;;;;;;10288343;28;20076;-62
2024/01/10 16:24:07;;;;;;;57.42;36.35;;;;;;;;;;10286714;28;20076;-62
2024/01/10 16:29:06;;;;;;;51.97;32.10;;;;;;;;;;10286264;28;20079;-62
2024/01/10 16:34:04;;;;;;;45.10;29.00;;;;;;;;;;10286799;28;20075;-62
2024/01/10 16:39:05;;;;;;;51.92;33.25;;;;;;;;;;10288346;28;20072;-62
2024/01/10 16:44:03;;;;;;;69.65;42.95;;;;;;;;;;10287687;28;20076;-62
2024/01/10 16:49:02;;;;;;;51.30;30.80;;;;;;;;;;10286386;28;20076;-62
2024/01/10 16:54:00;;;;;;;73.40;41.17;;;;;;;;;;10285982;28;20065;-61
2024/01/10 16:59:00;;;;;;;80.68;52.22;;;;;;;;;;10282330;28;20075;-62
2024/01/10 17:03:58;;;;;;;57.92;38.08;;;;;;;;;;10282408;28;20076;-63
2024/01/10 17:08:56;;;;;;;54.28;33.78;;;;;;;;;;10286270;28;20072;-62
2024/01/10 17:13:55;;;;;;;42.83;29.00;;;;;;;;;;10291236;28;20550;-62
2024/01/10 17:18:54;;;;;;;38.00;27.10;;;;;;;;;;10286205;28;20087;-63
2024/01/10 17:23:53;;;;;;;45.10;31.35;;;;;;;;;;10286606;28;20465;-62
2024/01/10 17:28:51;;;;;;;43.28;33.70;;;;;;;;;;10285826;28;20080;-61
2024/01/10 17:33:49;;;;;;;45.80;33.28;;;;;;;;;;10286172;28;20055;-63
2024/01/10 17:38:51;;;;;;;32.83;24.15;;;;;;;;;;10285474;28;20079;-62
2024/01/10 17:43:49;;;;;;;74.93;46.53;;;;;;;;;;10285882;28;20079;-62
2024/01/10 17:48:49;;;;;;;39.65;29.35;;;;;;;;;;10293709;28;20467;-61
2024/01/10 17:53:49;;;;;;;41.40;31.02;;;;;;;;;;10294216;28;20075;-62
2024/01/10 17:58:47;;;;;;;40.67;27.85;;;;;;;;;;10293593;28;20515;-62
2024/01/10 18:03:46;;;;;;;44.05;30.00;;;;;;;;;;10295121;28;20069;-62
2024/01/10 18:08:53;;;;;;;30.25;22.27;;;;;;;;;;10289259;28;20077;-62
2024/01/10 18:13:52;;;;;;;34.45;24.33;;;;;;;;;;10290044;28;20052;-62
2024/01/10 18:18:50;;;;;;;38.20;27.23;;;;;;;;;;10294014;28;20134;-62
2024/01/10 18:23:48;;;;;;;42.45;26.88;;;;;;;;;;10292840;28;20075;-62
2024/01/10 18:28:48;;;;;;;37.35;24.52;;;;;;;;;;10292047;28;20494;-62
2024/01/10 18:33:47;;;;;;;28.05;21.73;;;;;;;;;;10292204;28;20087;-61
2024/01/10 18:38:46;;;;;;;31.83;20.40;;;;;;;;;;10292098;28;20173;-62
2024/01/10 18:43:44;;;;;;;24.48;17.67;;;;;;;;;;10291103;28;20056;-61
2024/01/10 18:48:44;;;;;;;30.35;22.00;;;;;;;;;;10293372;28;20084;-62
2024/01/10 18:53:42;;;;;;;28.50;19.45;;;;;;;;;;10285893;28;20072;-63
2024/01/10 18:58:40;;;;;;;35.45;22.10;;;;;;;;;;10292143;28;20080;-62
2024/01/10 19:03:39;;;;;;;26.90;17.77;;;;;;;;;;10286149;28;20641;-62
2024/01/10 19:08:39;;;;;;;21.45;15.30;;;;;;;;;;10290089;28;20447;-62
2024/01/10 19:13:39;;;;;;;21.50;17.23;;;;;;;;;;10287275;28;20076;-62
2024/01/10 19:18:38;;;;;;;22.02;15.98;;;;;;;;;;10290665;28;20514;-62
2024/01/10 19:23:39;;;;;;;162.48;75.03;;;;;;;;;;10286327;28;20095;-62
2024/01/10 19:28:38;;;;;;;359.58;146.90;;;;;;;;;;10290913;28;20068;-61
2024/01/10 19:33:36;;;;;;;67.80;33.85;;;;;;;;;;10287919;28;20080;-62
2024/01/10 19:38:34;;;;;;;467.70;213.65;;;;;;;;;;10291380;28;20091;-62
2024/01/10 19:43:34;;;;;;;92.00;46.13;;;;;;;;;;10289188;28;20071;-61
2024/01/10 19:48:32;;;;;;;467.40;212.93;;;;;;;;;;10288987;28;20091;-62
2024/01/10 19:53:33;;;;;;;134.05;60.28;;;;;;;;;;10287203;28;20064;-62
2024/01/10 19:58:31;;;;;;;46.15;23.00;;;;;;;;;;10288704;28;20499;-62
2024/01/10 20:03:31;;;;;;;29.83;14.77;;;;;;;;;;10288643;28;20071;-63
2024/01/10 20:08:29;;;;;;;33.35;20.58;;;;;;;;;;10287561;28;20084;-63
2024/01/10 20:13:28;;;;;;;103.22;48.70;;;;;;;;;;10284755;28;20076;-63
2024/01/10 20:18:26;;;;;;;21.70;14.88;;;;;;;;;;10289063;28;20465;-62
2024/01/10 20:23:26;;;;;;;31.02;20.80;;;;;;;;;;10286252;28;20068;-62
2024/01/10 20:28:25;;;;;;;134.73;78.38;;;;;;;;;;10284298;28;20076;-62
2024/01/10 20:33:23;;;;;;;39.88;23.90;;;;;;;;;;10282787;28;20083;-63
2024/01/10 20:38:22;;;;;;;27.70;21.17;;;;;;;;;;10281984;28;20114;-62
2024/01/10 20:43:22;;;;;;;28.23;20.30;;;;;;;;;;10286025;28;20080;-62
2024/01/10 20:48:21;;;;;;;28.77;20.35;;;;;;;;;;10289349;28;20534;-62
2024/01/10 20:53:19;;;;;;;87.68;52.10;;;;;;;;;;10288176;28;20065;-62
2024/01/10 20:58:18;;;;;;;40.00;25.25;;;;;;;;;;10286976;28;20494;-62
2024/01/10 21:03:18;;;;;;;156.90;89.05;;;;;;;;;;10287240;28;20083;-62
2024/01/10 21:08:16;;;;;;;123.05;74.63;;;;;;;;;;10285683;28;20072;-63
2024/01/10 21:13:15;;;;;;;39.35;27.45;;;;;;;;;;10283755;28;20080;-62
2024/01/10 21:18:13;;;;;;;27.42;18.25;;;;;;;;;;10281011;28;20060;-61
2024/01/10 21:23:13;;;;;;;37.78;25.67;;;;;;;;;;10284414;28;20045;-61
2024/01/10 21:28:12;;;;;;;43.65;28.52;;;;;;;;;;10289033;28;20087;-61
2024/01/10 21:33:10;;;;;;;155.00;73.20;;;;;;;;;;10283826;28;20255;-62
2024/01/10 21:38:09;;;;;;;206.63;103.97;;;;;;;;;;10282468;28;20065;-62
2024/01/10 21:43:08;;;;;;;296.33;146.40;;;;;;;;;;10284592;28;20182;-62
2024/01/10 21:48:07;;;;;;;176.60;92.10;;;;;;;;;;10280868;28;20072;-62
2024/01/10 21:53:05;;;;;;;320.27;164.40;;;;;;;;;;10285561;28;20075;-62
2024/01/10 21:58:05;;;;;;;284.80;145.35;;;;;;;;;;10285044;28;20072;-62
2024/01/10 22:03:05;;;;;;;164.80;85.32;;;;;;;;;;10283979;28;20079;-61
2024/01/10 22:08:12;;;;;;;155.52;77.80;;;;;;;;;;10280136;28;20119;-61
2024/01/10 22:13:10;;;;;;;175.25;98.50;;;;;;;;;;10284144;28;20435;-62
2024/01/10 22:18:11;;;;;;;48.88;34.13;;;;;;;;;;10280698;28;20565;-62
2024/01/10 22:23:10;;;;;;;113.80;66.38;;;;;;;;;;10280593;28;20071;-61
2024/01/10 22:28:09;;;;;;;108.65;62.42;;;;;;;;;;10280065;28;20498;-62
2024/01/10 22:33:07;;;;;;;82.85;53.20;;;;;;;;;;10287801;28;20088;-62
2024/01/10 22:38:07;;;;;;;51.35;36.35;;;;;;;;;;10290187;28;20083;-61
2024/01/10 22:43:06;;;;;;;22.33;15.38;;;;;;;;;;10289325;28;20529;-62
2024/01/10 22:48:05;;;;;;;22.67;14.20;;;;;;;;;;10283650;28;20060;-61
2024/01/10 22:53:03;;;;;;;24.48;15.18;;;;;;;;;;10285880;28;20130;-61
2024/01/10 22:58:03;;;;;;;28.92;20.67;;;;;;;;;;10284216;28;20068;-62
2024/01/10 23:03:01;;;;;;;21.65;14.43;;;;;;;;;;10287551;28;20095;-61
2024/01/10 23:07:59;;;;;;;22.77;15.85;;;;;;;;;;10289106;28;20064;-61
2024/01/10 23:12:58;;;;;;;18.70;11.85;;;;;;;;;;10287639;28;20087;-61
2024/01/10 23:17:57;;;;;;;29.23;19.67;;;;;;;;;;10292800;28;20072;-62
2024/01/10 23:22:56;;;;;;;41.25;25.08;;;;;;;;;;10291473;28;20091;-61
2024/01/10 23:27:54;;;;;;;24.55;15.65;;;;;;;;;;10289786;28;20064;-61
2024/01/10 23:32:52;;;;;;;21.52;17.75;;;;;;;;;;10284522;28;20084;-62
2024/01/10 23:37:52;;;;;;;17.73;12.55;;;;;;;;;;10289419;28;20079;-63
2024/01/10 23:42:50;;;;;;;34.33;21.52;;;;;;;;;;10287761;28;20072;-62
2024/01/10 23:47:49;;;;;;;22.45;15.80;;;;;;;;;;10291101;28;20076;-61
2024/01/10 23:52:47;;;;;;;23.10;16.02;;;;;;;;;;10290962;28;20064;-62
2024/01/10 23:57:47;;;;;;;24.73;15.90;;;;;;;;;;10289956;28;20064;-61
